地図

経路データ

SID SEASON NUMBER BASIN SUBBASIN NAME ISO_TIME NATURE LAT LON WMO_WIND WMO_PRES WMO_AGENCY TRACK_TYPE DIST2LAND LANDFALL IFLAG USA_AGENCY USA_ATCF_ID USA_LAT USA_LON USA_RECORD USA_STATUS USA_WIND USA_PRES USA_SSHS USA_R34_NE USA_R34_SE USA_R34_SW USA_R34_NW USA_R50_NE USA_R50_SE USA_R50_SW USA_R50_NW USA_R64_NE USA_R64_SE USA_R64_SW USA_R64_NW USA_POCI USA_ROCI USA_RMW USA_EYE TOKYO_LAT TOKYO_LON TOKYO_GRADE TOKYO_WIND TOKYO_PRES TOKYO_R50_DIR TOKYO_R50_LONG TOKYO_R50_SHORT TOKYO_R30_DIR TOKYO_R30_LONG TOKYO_R30_SHORT TOKYO_LAND CMA_LAT CMA_LON CMA_CAT CMA_WIND CMA_PRES HKO_LAT HKO_LON HKO_CAT HKO_WIND HKO_PRES NEWDELHI_LAT NEWDELHI_LON NEWDELHI_GRADE NEWDELHI_WIND NEWDELHI_PRES NEWDELHI_CI NEWDELHI_DP NEWDELHI_POCI REUNION_LAT REUNION_LON REUNION_TYPE REUNION_WIND REUNION_PRES REUNION_TNUM REUNION_CI REUNION_RMW REUNION_R34_NE REUNION_R34_SE REUNION_R34_SW REUNION_R34_NW REUNION_R50_NE REUNION_R50_SE REUNION_R50_SW REUNION_R50_NW REUNION_R64_NE REUNION_R64_SE REUNION_R64_SW REUNION_R64_NW BOM_LAT BOM_LON BOM_TYPE BOM_WIND BOM_PRES BOM_TNUM BOM_CI BOM_RMW BOM_R34_NE BOM_R34_SE BOM_R34_SW BOM_R34_NW BOM_R50_NE BOM_R50_SE BOM_R50_SW BOM_R50_NW BOM_R64_NE BOM_R64_SE BOM_R64_SW BOM_R64_NW BOM_ROCI BOM_POCI BOM_EYE BOM_POS_METHOD BOM_PRES_METHOD NADI_LAT NADI_LON NADI_CAT NADI_WIND NADI_PRES WELLINGTON_LAT WELLINGTON_LON WELLINGTON_WIND WELLINGTON_PRES DS824_LAT DS824_LON DS824_STAGE DS824_WIND DS824_PRES TD9636_LAT TD9636_LON TD9636_STAGE TD9636_WIND TD9636_PRES TD9635_LAT TD9635_LON TD9635_WIND TD9635_PRES TD9635_ROCI NEUMANN_LAT NEUMANN_LON NEUMANN_CLASS NEUMANN_WIND NEUMANN_PRES MLC_LAT MLC_LON MLC_CLASS MLC_WIND MLC_PRES USA_GUST BOM_GUST BOM_GUST_PER REUNION_GUST REUNION_GUST_PER USA_SEAHGT USA_SEARAD_NE USA_SEARAD_SE USA_SEARAD_SW USA_SEARAD_NW STORM_SPEED STORM_DIR
2021021S12097 2021 6 SI WA NOT_NAMED 2021-01-21 00:00:00 NR -12.4000 97.2000 PROVISIONAL 1078 1078 O_____________ tcvitals SI132021 -12.4000 97.2000 35 999 0 40 50 50 55 1005 185 40 4 281
2021021S12097 2021 6 SI WA NOT_NAMED 2021-01-21 03:00:00 NR -12.3581 96.9754 PROVISIONAL 1096 1096 P_____________ SI132021 -12.3581 96.9754 35 1000 0 40 47 52 55 1005 185 40 3 270
2021021S12097 2021 6 SI WA NOT_NAMED 2021-01-21 06:00:00 NR -12.4000 96.9000 PROVISIONAL 1103 1102 O_____________ tcvitals SI132021 -12.4000 96.9000 35 1001 0 40 45 55 55 1005 185 40 2 158
2021021S12097 2021 6 SI WA NOT_NAMED 2021-01-21 09:00:00 NR -12.5757 97.0614 PROVISIONAL 1100 1096 P_____________ SI132021 -12.5757 97.0614 35 1000 0 42 52 55 52 1005 185 40 6 136
2021021S12097 2021 6 SI WA NOT_NAMED 2021-01-21 12:00:00 NR -12.8000 97.3000 PROVISIONAL 1096 1094 O_____________ tcvitals SI132021 -12.8000 97.3000 35 1000 0 45 60 55 50 1005 185 40 5 138
2021021S12097 2021 6 SI WA NOT_NAMED 2021-01-21 15:00:00 NR -12.9793 97.4373 PROVISIONAL 1101 1092 P_____________ SI132021 -12.9793 97.4373 35 999 0 4 148
2021021S12097 2021 6 SI WA NOT_NAMED 2021-01-21 18:00:00 NR -13.1249 97.5126 PROVISIONAL 1099 1099 I_____________ tcvitals SI132021 -13.1249 97.5126 35 998 0 3 160
2021021S12097 2021 6 SI WA NOT_NAMED 2021-01-21 21:00:00 NR -13.2368 97.5373 PROVISIONAL 1106 1106 P_____________ SI132021 -13.2368 97.5373 35 997 0 2 188
2021021S12097 2021 6 SI WA NOT_NAMED 2021-01-22 00:00:00 NR -13.3000 97.5000 PROVISIONAL 1114 1114 O_____________ tcvitals SI132021 -13.3000 97.5000 35 997 0 70 65 130 126 1005 180 40 2 241
2021021S12097 2021 6 SI WA NOT_NAMED 2021-01-22 03:00:00 NR -13.3132 97.3991 PROVISIONAL 1122 1122 P_____________ SI132021 -13.3132 97.3991 35 997 0 87 42 87 140 1005 180 35 2 270
2021021S12097 2021 6 SI WA NOT_NAMED 2021-01-22 06:00:00 NR -13.3000 97.3000 PROVISIONAL 1130 1130 O_____________ tcvitals SI132021 -13.3000 97.3000 35 998 0 105 20 45 155 1005 180 30 1 281
2021021S12097 2021 6 SI WA NOT_NAMED 2021-01-22 09:00:00 NR -13.2925 97.2850 PROVISIONAL 1130 1130 P_____________ SI132021 -13.2925 97.2850 35 998 0 105 20 45 155 1005 180 30 0 0
2021021S12097 2021 6 SI WA NOT_NAMED 2021-01-22 12:00:00 NR -13.3000 97.3000 PROVISIONAL 1130 1130 O_____________ tcvitals SI132021 -13.3000 97.3000 35 998 0 105 20 45 155 1005 180 30 0 0
2021021S12097 2021 6 SI WA NOT_NAMED 2021-01-22 15:00:00 NR -13.3200 97.3075 PROVISIONAL 1130 1130 P_____________ SI132021 -13.3200 97.3075 35 996 0 95 40 85 182 1004 180 30 1 0
2021021S12097 2021 6 SI WA NOT_NAMED 2021-01-22 18:00:00 NR -13.4000 97.3000 PROVISIONAL 1137 1137 O_____________ tcvitals SI132021 -13.4000 97.3000 35 995 0 85 60 126 210 1004 180 30 3 199
2021021S12097 2021 6 SI WA NOT_NAMED 2021-01-22 21:00:00 NR -13.5625 97.2276 PROVISIONAL 1160 1160 P_____________ SI132021 -13.5625 97.2276 35 995 0 85 60 126 210 1004 185 30 4 193
2021021S12097 2021 6 SI WA NOT_NAMED 2021-01-23 00:00:00 NR -13.8000 97.2000 PROVISIONAL 1175 1174 O_____________ tcvitals SI132021 -13.8000 97.2000 35 996 0 85 60 126 210 1005 190 30 5 169
2021021S12097 2021 6 SI WA NOT_NAMED 2021-01-23 03:00:00 NR -14.0775 97.3349 PROVISIONAL 1189 1181 P_____________ SI132021 -14.0775 97.3349 35 997 0 80 57 83 150 1004 200 30 7 154
2021021S12097 2021 6 SI WA NOT_NAMED 2021-01-23 06:00:00 NR -14.4000 97.5000 PROVISIONAL 1196 1196 O_____________ tcvitals SI132021 -14.4000 97.5000 35 998 0 75 55 40 90 1004 210 30 7 162
2021021S12097 2021 6 SI WA NOT_NAMED 2021-01-23 09:00:00 NR -14.7542 97.5558 PROVISIONAL 1221 1221 P_____________ SI132021 -14.7542 97.5558 35 998 0 67 55 40 82 1004 205 32 7 172
2021021S12097 2021 6 SI WA NOT_NAMED 2021-01-23 12:00:00 NR -15.1000 97.6000 PROVISIONAL 1245 1245 O_____________ tcvitals SI132021 -15.1000 97.6000 35 999 0 60 55 40 75 1004 200 35 7 165
2021021S12097 2021 6 SI WA NOT_NAMED 2021-01-23 15:00:00 NR -15.3973 97.7365 PROVISIONAL 1263 1256 P_____________ SI132021 -15.3973 97.7365 35 998 0 6 158
2021021S12097 2021 6 SI WA NOT_NAMED 2021-01-23 18:00:00 NR -15.6431 97.8245 PROVISIONAL 1273 1273 I_____________ tcvitals SI132021 -15.6431 97.8245 35 998 0 5 172
2021021S12097 2021 6 SI WA NOT_NAMED 2021-01-23 21:00:00 NR -15.8470 97.8116 PROVISIONAL 1290 1290 P_____________ SI132021 -15.8470 97.8116 35 998 0 4 211
2021021S12097 2021 6 SI WA NOT_NAMED 2021-01-24 00:00:00 NR -16.0000 97.6000 PROVISIONAL 1321 1321 O_____________ tcvitals SI132021 -16.0000 97.6000 35 998 0 50 25 40 35 1006 150 40 8 248
2021021S12097 2021 6 SI WA NOT_NAMED 2021-01-24 03:00:00 NR -16.1348 97.0559 PROVISIONAL 1364 1364 P_____________ SI132021 -16.1348 97.0559 32 998 -1 1005 162 50 11 259
2021021S12097 2021 6 SI WA NOT_NAMED 2021-01-24 06:00:00 NR -16.2000 96.5000 PROVISIONAL 1416 1416 O_____________ tcvitals SI132021 -16.2000 96.5000 29 999 -1 1004 175 60 7 268
2021021S12097 2021 6 SI WA NOT_NAMED 2021-01-24 09:00:00 NR -16.1647 96.3049 PROVISIONAL 1430 1422 P_____________ SI132021 -16.1647 96.3049 29 999 -1 1004 175 60 3 289
2021021S12097 2021 6 SI WA NOT_NAMED 2021-01-24 12:00:00 NR -16.1000 96.2000 PROVISIONAL 1430 1430 O_____________ tcvitals SI132021 -16.1000 96.2000 29 999 -1 1004 175 60 4 286
2021021S12097 2021 6 SI WA NOT_NAMED 2021-01-24 15:00:00 NR -16.0626 95.9275 PROVISIONAL 1452 1452 P_____________ SI132021 -16.0626 95.9275 29 999 -1 1004 172 50 5 270
2021021S12097 2021 6 SI WA NOT_NAMED 2021-01-24 18:00:00 NR -16.1000 95.7000 PROVISIONAL 1468 1468 O_____________ tcvitals SI132021 -16.1000 95.7000 29 1000 -1 1004 170 40 3 235
2021021S12097 2021 6 SI WA NOT_NAMED 2021-01-24 21:00:00 NR -16.2474 95.6476 PROVISIONAL 1483 1483 P_____________ SI132021 -16.2474 95.6476 32 998 -1 1004 185 35 4 0
2021021S12097 2021 6 SI WA NOT_NAMED 2021-01-25 00:00:00 NR -16.5000 95.7000 PROVISIONAL 1499 1499 O_____________ tcvitals SI132021 -16.5000 95.7000 35 996 0 1004 200 30 6 163
2021021S12097 2021 6 SI WA NOT_NAMED 2021-01-25 03:00:00 NR -16.8500 95.8372 PROVISIONAL 1516 1516 P_____________ SI132021 -16.8500 95.8372 32 998 -1 1004 195 30 7 165
2021021S12097 2021 6 SI WA NOT_NAMED 2021-01-25 06:00:00 NR -17.2000 95.9000 PROVISIONAL 1541 1541 O_____________ tcvitals SI132021 -17.2000 95.9000 29 1000 -1 1005 190 30 6 193
2021021S12097 2021 6 SI WA NOT_NAMED 2021-01-25 09:00:00 NR -17.4001 95.7025 PROVISIONAL 1572 1572 P_____________ SI132021 -17.4001 95.7025 32 999 -1 1004 190 35 6 230
2021021S12097 2021 6 SI WA NOT_NAMED 2021-01-25 12:00:00 NR -17.6000 95.4000 PROVISIONAL 1610 1610 O_____________ tcvitals SI132021 -17.6000 95.4000 35 999 0 45 60 60 70 1004 190 40 8 223
2021021S12097 2021 6 SI WA NOT_NAMED 2021-01-25 15:00:00 NR -17.9800 95.1353 PROVISIONAL 1665 1665 P_____________ SI132021 -17.9800 95.1353 35 999 0 45 60 60 70 1004 190 40 9 214
2021021S12097 2021 6 SI WA NOT_NAMED 2021-01-25 18:00:00 NR -18.3000 94.9000 PROVISIONAL 1704 1704 O_____________ tcvitals SI132021 -18.3000 94.9000 35 999 0 45 60 60 70 1004 190 40 5 228
2021021S12097 2021 6 SI WA NOT_NAMED 2021-01-25 21:00:00 NR -18.3149 94.7497 PROVISIONAL 1718 1718 P_____________ SI132021 -18.3149 94.7497 35 999 0 47 60 60 70 1004 195 40 3 270
2021021S12097 2021 6 SI WA NOT_NAMED 2021-01-26 00:00:00 NR -18.3000 94.6000 PROVISIONAL 1725 1725 O_____________ tcvitals SI132021 -18.3000 94.6000 35 1000 0 50 60 60 70 1005 200 40 4 242
2021021S12097 2021 6 SI WA NOT_NAMED 2021-01-26 03:00:00 NR -18.5201 94.3427 PROVISIONAL 1763 1763 P_____________ SI132021 -18.5201 94.3427 35 1000 0 50 60 60 70 1005 200 40 7 224
2021021S12097 2021 6 SI WA NOT_NAMED 2021-01-26 06:00:00 NR -18.8000 94.1000 PROVISIONAL 1802 1802 O_____________ tcvitals SI132021 -18.8000 94.1000 35 1000 0 50 60 60 70 1005 200 40 6 215
2021021S12097 2021 6 SI WA NOT_NAMED 2021-01-26 09:00:00 NR -18.9999 93.9848 PROVISIONAL 1826 1826 P_____________ SI132021 -18.9999 93.9848 35 1000 0 50 60 60 70 1005 200 40 4 205
2021021S12097 2021 6 SI WA NOT_NAMED 2021-01-26 12:00:00 NR -19.2000 93.9000 PROVISIONAL 1849 1849 O_____________ tcvitals SI132021 -19.2000 93.9000 35 1000 0 50 60 60 70 1005 200 40 5 192
2021021S12097 2021 6 SI WA NOT_NAMED 2021-01-26 15:00:00 NR -19.4942 93.8701 PROVISIONAL 1874 1874 P_____________ SI132021 -19.4942 93.8701 35 1000 0 50 60 60 70 1005 200 40 6 210
2021021S12097 2021 6 SI WA NOT_NAMED 2021-01-26 18:00:00 NR -19.7000 93.6000 PROVISIONAL 1912 1912 O_____________ tcvitals SI132021 -19.7000 93.6000 35 1001 0 50 60 60 70 1006 200 40 11 262
2021021S12097 2021 6 SI WA NOT_NAMED 2021-01-26 21:00:00 NR -19.6395 92.6992 PROVISIONAL 1969 1969 P_____________ SI132021 -19.6395 92.6992 35 1001 0 45 55 57 67 1005 200 40 17 277
2021021S12097 2021 6 SI WA NOT_NAMED 2021-01-27 00:00:00 NR -19.5000 91.8000 PROVISIONAL 2029 2029 O_____________ tcvitals SI132021 -19.5000 91.8000 35 1001 0 40 50 55 65 1005 200 40 10 278
2021021S12097 2021 6 SI WA NOT_NAMED 2021-01-27 03:00:00 NR -19.4914 91.6053 PROVISIONAL 2044 2044 P_____________ SI132021 -19.4914 91.6053 35 1000 0 1005 200 40 3 270
2021021S12097 2021 6 SI WA NOT_NAMED 2021-01-27 06:00:00 NR -19.5000 91.5000 PROVISIONAL 2052 2052 O_____________ tcvitals SI132021 -19.5000 91.5000 35 999 0 1005 200 40 5 271
2021021S12097 2021 6 SI WA NOT_NAMED 2021-01-27 09:00:00 NR -19.4861 91.0805 PROVISIONAL 2084 2084 P_____________ SI132021 -19.4861 91.0805 32 1000 -1 1005 200 40 11 275
2021021S12097 2021 6 SI WA NOT_NAMED 2021-01-27 12:00:00 NR -19.4000 90.3000 PROVISIONAL 2141 2141 O_____________ tcvitals SI132021 -19.4000 90.3000 29 1001 -1 1005 200 40 21 279
2021021S12097 2021 6 SI MM NOT_NAMED 2021-01-27 15:00:00 NR -19.1463 88.8733 PROVISIONAL 2231 2231 P_____________ SI132021 -19.1463 88.8733 27 1002 -1 1005 195 40 26 281
2021021S12097 2021 6 SI MM NOT_NAMED 2021-01-27 18:00:00 NR -18.9000 87.6000 PROVISIONAL 2286 2286 O_____________ tcvitals SI132021 -18.9000 87.6000 25 1004 -1 1005 190 40 14 281
2021021S12097 2021 6 SI MM NOT_NAMED 2021-01-27 21:00:00 NR -18.8752 87.4334 PROVISIONAL 2298 2292 P_____________ SI132021 -18.8752 87.4334 25 1004 -1 1006 180 37 2 270
2021021S12097 2021 6 SI MM NOT_NAMED 2021-01-28 00:00:00 NR -18.9000 87.4000 PROVISIONAL 2298 2298 O_____________ tcvitals SI132021 -18.9000 87.4000 25 1004 -1 1007 170 35 9 271
2021021S12097 2021 6 SI MM NOT_NAMED 2021-01-28 03:00:00 NR -18.8543 86.5300 PROVISIONAL 2353 2344 P_____________ SI132021 -18.8543 86.5300 27 1004 -1 1007 160 35 17 277
2021021S12097 2021 6 SI MM NOT_NAMED 2021-01-28 06:00:00 NR -18.7000 85.6000 PROVISIONAL 2393 2387 O_____________ tcvitals SI132021 -18.7000 85.6000 29 1005 -1 1008 150 35 13 293
2021021S12097 2021 6 SI MM NOT_NAMED 2021-01-28 09:00:00 NR -18.3710 85.3006 PROVISIONAL 2387 2367 P_____________ SI132021 -18.3710 85.3006 29 1004 -1 1007 155 35 9 321
2021021S12097 2021 6 SI MM NOT_NAMED 2021-01-28 12:00:00 NR -18.0000 85.0000 PROVISIONAL 2374 2372 O_____________ tcvitals SI132021 -18.0000 85.0000 29 1004 -1 1007 160 35 12 303
2021021S12097 2021 6 SI MM NOT_NAMED 2021-01-28 15:00:00 NR -17.7120 84.2496 PROVISIONAL 2406 2406 P_____________ SI132021 -17.7120 84.2496 27 1005 -1 1008 155 35 18 286
2021021S12097 2021 6 SI MM NOT_NAMED 2021-01-28 18:00:00 NR -17.5000 83.2000 PROVISIONAL 2465 2465 O_____________ tcvitals SI132021 -17.5000 83.2000 25 1007 -1 1009 150 35 23 279
2021021S12097 2021 6 SI MM NOT_NAMED 2021-01-28 21:00:00 NR -17.3410 81.9147 PROVISIONAL 2551 2431 P_____________ SI132021 -17.3410 81.9147 25 1007 -1 1009 150 35 25 275
2021021S12097 2021 6 SI MM NOT_NAMED 2021-01-29 00:00:00 NR -17.3000 80.6000 PROVISIONAL 2421 2315 O_____________ tcvitals SI132021 -17.3000 80.6000 25 1007 -1 1009 150 35 23 268
2021021S12097 2021 6 SI MM NOT_NAMED 2021-01-29 03:00:00 NR -17.4073 79.5208 PROVISIONAL 2304 2206 P_____________ SI132021 -17.4073 79.5208 25 1007 -1 1009 140 32 19 261
2021021S12097 2021 6 SI MM NOT_NAMED 2021-01-29 06:00:00 NR -17.6000 78.6000 PROVISIONAL 2206 O_____________ tcvitals SI132021 -17.6000 78.6000 25 1007 -1 1009 130 30 18 258

IBTrACS Databaseについて

本データベースは、米国NOAAが公開する1842年以降の世界の熱帯低気圧のベストトラックデータアーカイブInternational Best Track Archive for Climate Stewardship (IBTrACS)を、ウェブで閲覧しやすい形式に変換したものです。

最終更新日:2021-10-21